sensor_id;sensor_type;location;lat;lon;timestamp;P1;durP1;ratioP1;P2;durP2;ratioP2
16770;SDS011;8503;52.472;13.344;2024-02-23T00:00:46;0.90;;;0.40;;
16770;SDS011;8503;52.472;13.344;2024-02-23T00:01:29;0.63;;;0.32;;
16770;SDS011;8503;52.472;13.344;2024-02-23T00:02:11;0.63;;;0.30;;
16770;SDS011;8503;52.472;13.344;2024-02-23T00:02:56;0.30;;;0.20;;
16770;SDS011;8503;52.472;13.344;2024-02-23T00:03:39;1.15;;;0.30;;
16770;SDS011;8503;52.472;13.344;2024-02-23T00:04:21;1.15;;;0.20;;
16770;SDS011;8503;52.472;13.344;2024-02-23T00:05:05;0.17;;;0.15;;
16770;SDS011;8503;52.472;13.344;2024-02-23T00:05:48;0.43;;;0.22;;
16770;SDS011;8503;52.472;13.344;2024-02-23T00:06:31;0.45;;;0.30;;
16770;SDS011;8503;52.472;13.344;2024-02-23T00:07:14;1.35;;;0.63;;
16770;SDS011;8503;52.472;13.344;2024-02-23T00:07:56;0.75;;;0.28;;
16770;SDS011;8503;52.472;13.344;2024-02-23T00:08:40;0.30;;;0.20;;
16770;SDS011;8503;52.472;13.344;2024-02-23T00:09:24;2.17;;;0.40;;
16770;SDS011;8503;52.472;13.344;2024-02-23T00:10:07;0.47;;;0.30;;
16770;SDS011;8503;52.472;13.344;2024-02-23T00:10:52;0.60;;;0.30;;
16770;SDS011;8503;52.472;13.344;2024-02-23T00:12:47;0.80;;;0.30;;
16770;SDS011;8503;52.472;13.344;2024-02-23T00:13:29;0.80;;;0.40;;
16770;SDS011;8503;52.472;13.344;2024-02-23T00:14:12;0.70;;;0.22;;
16770;SDS011;8503;52.472;13.344;2024-02-23T00:14:58;0.50;;;0.22;;
16770;SDS011;8503;52.472;13.344;2024-02-23T00:15:40;0.68;;;0.38;;
16770;SDS011;8503;52.472;13.344;2024-02-23T00:16:26;0.77;;;0.25;;
16770;SDS011;8503;52.472;13.344;2024-02-23T00:17:10;0.52;;;0.30;;
16770;SDS011;8503;52.472;13.344;2024-02-23T00:17:53;0.68;;;0.30;;
16770;SDS011;8503;52.472;13.344;2024-02-23T00:18:37;0.65;;;0.32;;
16770;SDS011;8503;52.472;13.344;2024-02-23T00:19:20;0.38;;;0.17;;
16770;SDS011;8503;52.472;13.344;2024-02-23T00:20:04;0.45;;;0.40;;
16770;SDS011;8503;52.472;13.344;2024-02-23T00:20:47;0.43;;;0.20;;
16770;SDS011;8503;52.472;13.344;2024-02-23T00:21:31;0.47;;;0.28;;
16770;SDS011;8503;52.472;13.344;2024-02-23T00:22:14;0.70;;;0.30;;
16770;SDS011;8503;52.472;13.344;2024-02-23T00:22:56;0.30;;;0.20;;
16770;SDS011;8503;52.472;13.344;2024-02-23T00:23:39;0.38;;;0.30;;
16770;SDS011;8503;52.472;13.344;2024-02-23T00:24:22;0.43;;;0.22;;
16770;SDS011;8503;52.472;13.344;2024-02-23T00:25:04;0.85;;;0.30;;
16770;SDS011;8503;52.472;13.344;2024-02-23T00:25:48;0.75;;;0.17;;
16770;SDS011;8503;52.472;13.344;2024-02-23T00:26:32;0.57;;;0.25;;
16770;SDS011;8503;52.472;13.344;2024-02-23T00:27:15;0.88;;;0.50;;
16770;SDS011;8503;52.472;13.344;2024-02-23T00:27:58;0.65;;;0.40;;
16770;SDS011;8503;52.472;13.344;2024-02-23T00:28:41;0.50;;;0.30;;
16770;SDS011;8503;52.472;13.344;2024-02-23T00:29:23;0.60;;;0.38;;
16770;SDS011;8503;52.472;13.344;2024-02-23T00:30:07;0.65;;;0.30;;
16770;SDS011;8503;52.472;13.344;2024-02-23T00:30:50;1.13;;;0.47;;
16770;SDS011;8503;52.472;13.344;2024-02-23T00:31:32;0.52;;;0.35;;
16770;SDS011;8503;52.472;13.344;2024-02-23T00:32:17;0.50;;;0.40;;
16770;SDS011;8503;52.472;13.344;2024-02-23T00:32:59;1.13;;;0.70;;
16770;SDS011;8503;52.472;13.344;2024-02-23T00:33:44;0.40;;;0.30;;
16770;SDS011;8503;52.472;13.344;2024-02-23T00:34:26;0.25;;;0.17;;
16770;SDS011;8503;52.472;13.344;2024-02-23T00:35:11;0.70;;;0.30;;
16770;SDS011;8503;52.472;13.344;2024-02-23T00:35:54;0.75;;;0.32;;
16770;SDS011;8503;52.472;13.344;2024-02-23T00:36:37;1.73;;;0.70;;
16770;SDS011;8503;52.472;13.344;2024-02-23T00:37:21;0.30;;;0.30;;
16770;SDS011;8503;52.472;13.344;2024-02-23T00:38:03;0.47;;;0.30;;
16770;SDS011;8503;52.472;13.344;2024-02-23T00:38:46;0.50;;;0.30;;
16770;SDS011;8503;52.472;13.344;2024-02-23T00:39:29;0.70;;;0.40;;
16770;SDS011;8503;52.472;13.344;2024-02-23T00:40:13;1.33;;;0.65;;
16770;SDS011;8503;52.472;13.344;2024-02-23T00:40:56;0.88;;;0.50;;
16770;SDS011;8503;52.472;13.344;2024-02-23T00:41:39;0.82;;;0.32;;
16770;SDS011;8503;52.472;13.344;2024-02-23T00:42:22;0.75;;;0.30;;
16770;SDS011;8503;52.472;13.344;2024-02-23T00:43:04;0.43;;;0.28;;
16770;SDS011;8503;52.472;13.344;2024-02-23T00:43:47;0.65;;;0.35;;
16770;SDS011;8503;52.472;13.344;2024-02-23T00:44:30;0.70;;;0.40;;
16770;SDS011;8503;52.472;13.344;2024-02-23T00:45:13;0.70;;;0.47;;
16770;SDS011;8503;52.472;13.344;2024-02-23T00:45:55;0.20;;;0.20;;
16770;SDS011;8503;52.472;13.344;2024-02-23T00:46:38;1.35;;;0.32;;
16770;SDS011;8503;52.472;13.344;2024-02-23T00:47:21;0.57;;;0.25;;
16770;SDS011;8503;52.472;13.344;2024-02-23T00:48:04;1.42;;;0.45;;
16770;SDS011;8503;52.472;13.344;2024-02-23T00:48:49;0.90;;;0.32;;
16770;SDS011;8503;52.472;13.344;2024-02-23T00:49:31;0.75;;;0.38;;
16770;SDS011;8503;52.472;13.344;2024-02-23T00:50:14;1.10;;;0.40;;
16770;SDS011;8503;52.472;13.344;2024-02-23T00:50:57;0.98;;;0.40;;
16770;SDS011;8503;52.472;13.344;2024-02-23T00:51:40;0.73;;;0.35;;
16770;SDS011;8503;52.472;13.344;2024-02-23T00:52:22;1.10;;;0.45;;
16770;SDS011;8503;52.472;13.344;2024-02-23T00:53:05;1.23;;;0.40;;
16770;SDS011;8503;52.472;13.344;2024-02-23T00:53:48;0.57;;;0.40;;
16770;SDS011;8503;52.472;13.344;2024-02-23T00:54:30;0.50;;;0.25;;
16770;SDS011;8503;52.472;13.344;2024-02-23T00:55:13;0.47;;;0.38;;
16770;SDS011;8503;52.472;13.344;2024-02-23T00:55:56;0.60;;;0.40;;
16770;SDS011;8503;52.472;13.344;2024-02-23T00:56:39;0.50;;;0.30;;
16770;SDS011;8503;52.472;13.344;2024-02-23T00:57:32;0.85;;;0.40;;
16770;SDS011;8503;52.472;13.344;2024-02-23T00:58:15;0.70;;;0.30;;
16770;SDS011;8503;52.472;13.344;2024-02-23T00:58:58;0.55;;;0.30;;
16770;SDS011;8503;52.472;13.344;2024-02-23T00:59:40;0.75;;;0.40;;
16770;SDS011;8503;52.472;13.344;2024-02-23T01:00:23;1.50;;;0.30;;
16770;SDS011;8503;52.472;13.344;2024-02-23T01:01:06;0.30;;;0.30;;
16770;SDS011;8503;52.472;13.344;2024-02-23T01:01:49;0.30;;;0.20;;
16770;SDS011;8503;52.472;13.344;2024-02-23T01:02:32;1.13;;;0.50;;
16770;SDS011;8503;52.472;13.344;2024-02-23T01:03:15;2.55;;;0.40;;
16770;SDS011;8503;52.472;13.344;2024-02-23T01:03:59;0.98;;;0.57;;
16770;SDS011;8503;52.472;13.344;2024-02-23T01:04:42;0.90;;;0.47;;
16770;SDS011;8503;52.472;13.344;2024-02-23T01:05:25;0.40;;;0.30;;
16770;SDS011;8503;52.472;13.344;2024-02-23T01:06:08;0.35;;;0.22;;
16770;SDS011;8503;52.472;13.344;2024-02-23T01:06:50;0.75;;;0.50;;
16770;SDS011;8503;52.472;13.344;2024-02-23T01:07:34;0.63;;;0.30;;
16770;SDS011;8503;52.472;13.344;2024-02-23T01:08:16;2.42;;;0.57;;
16770;SDS011;8503;52.472;13.344;2024-02-23T01:08:59;0.82;;;0.43;;
16770;SDS011;8503;52.472;13.344;2024-02-23T01:09:43;0.88;;;0.47;;
16770;SDS011;8503;52.472;13.344;2024-02-23T01:10:25;0.63;;;0.50;;
16770;SDS011;8503;52.472;13.344;2024-02-23T01:11:08;0.50;;;0.32;;
16770;SDS011;8503;52.472;13.344;2024-02-23T01:11:52;0.60;;;0.35;;
16770;SDS011;8503;52.472;13.344;2024-02-23T01:12:34;0.85;;;0.50;;
16770;SDS011;8503;52.472;13.344;2024-02-23T01:13:18;0.40;;;0.38;;
16770;SDS011;8503;52.472;13.344;2024-02-23T01:14:02;0.80;;;0.40;;
16770;SDS011;8503;52.472;13.344;2024-02-23T01:14:44;0.98;;;0.50;;
16770;SDS011;8503;52.472;13.344;2024-02-23T01:15:29;0.60;;;0.28;;
16770;SDS011;8503;52.472;13.344;2024-02-23T01:16:13;1.30;;;0.68;;
16770;SDS011;8503;52.472;13.344;2024-02-23T01:16:55;0.73;;;0.32;;
16770;SDS011;8503;52.472;13.344;2024-02-23T01:17:38;1.38;;;0.40;;
16770;SDS011;8503;52.472;13.344;2024-02-23T01:18:22;1.17;;;0.60;;
16770;SDS011;8503;52.472;13.344;2024-02-23T01:19:06;1.83;;;0.60;;
16770;SDS011;8503;52.472;13.344;2024-02-23T01:19:50;1.33;;;0.35;;
16770;SDS011;8503;52.472;13.344;2024-02-23T01:20:33;0.65;;;0.30;;
16770;SDS011;8503;52.472;13.344;2024-02-23T01:21:16;0.57;;;0.38;;
16770;SDS011;8503;52.472;13.344;2024-02-23T01:21:59;1.88;;;0.60;;
16770;SDS011;8503;52.472;13.344;2024-02-23T01:22:42;0.60;;;0.40;;
16770;SDS011;8503;52.472;13.344;2024-02-23T01:23:25;1.30;;;0.73;;
16770;SDS011;8503;52.472;13.344;2024-02-23T01:24:09;0.82;;;0.43;;
16770;SDS011;8503;52.472;13.344;2024-02-23T01:24:51;0.90;;;0.43;;
16770;SDS011;8503;52.472;13.344;2024-02-23T01:25:34;1.98;;;0.52;;
16770;SDS011;8503;52.472;13.344;2024-02-23T01:26:18;0.80;;;0.40;;
16770;SDS011;8503;52.472;13.344;2024-02-23T01:27:01;0.50;;;0.40;;
16770;SDS011;8503;52.472;13.344;2024-02-23T01:27:44;1.27;;;0.57;;
16770;SDS011;8503;52.472;13.344;2024-02-23T01:28:29;0.57;;;0.40;;
16770;SDS011;8503;52.472;13.344;2024-02-23T01:29:12;0.75;;;0.40;;
16770;SDS011;8503;52.472;13.344;2024-02-23T01:29:54;0.80;;;0.50;;
16770;SDS011;8503;52.472;13.344;2024-02-23T01:30:37;1.08;;;0.38;;
16770;SDS011;8503;52.472;13.344;2024-02-23T01:31:20;1.05;;;0.57;;
16770;SDS011;8503;52.472;13.344;2024-02-23T01:32:02;0.95;;;0.40;;
16770;SDS011;8503;52.472;13.344;2024-02-23T01:32:47;0.80;;;0.50;;
16770;SDS011;8503;52.472;13.344;2024-02-23T01:33:32;0.55;;;0.28;;
16770;SDS011;8503;52.472;13.344;2024-02-23T01:34:16;1.88;;;0.50;;
16770;SDS011;8503;52.472;13.344;2024-02-23T01:35:00;2.38;;;0.57;;
16770;SDS011;8503;52.472;13.344;2024-02-23T01:35:42;1.13;;;0.40;;
16770;SDS011;8503;52.472;13.344;2024-02-23T01:36:25;0.93;;;0.38;;
16770;SDS011;8503;52.472;13.344;2024-02-23T01:37:08;1.98;;;0.60;;
16770;SDS011;8503;52.472;13.344;2024-02-23T01:37:51;2.30;;;0.75;;
16770;SDS011;8503;52.472;13.344;2024-02-23T01:38:34;0.68;;;0.47;;
16770;SDS011;8503;52.472;13.344;2024-02-23T01:39:18;1.05;;;0.60;;
16770;SDS011;8503;52.472;13.344;2024-02-23T01:40:00;1.50;;;0.70;;
16770;SDS011;8503;52.472;13.344;2024-02-23T01:40:42;1.33;;;0.35;;
16770;SDS011;8503;52.472;13.344;2024-02-23T01:41:26;1.13;;;0.70;;
16770;SDS011;8503;52.472;13.344;2024-02-23T01:42:09;4.55;;;1.00;;
16770;SDS011;8503;52.472;13.344;2024-02-23T01:43:00;0.50;;;0.35;;
16770;SDS011;8503;52.472;13.344;2024-02-23T01:43:44;1.20;;;0.60;;
16770;SDS011;8503;52.472;13.344;2024-02-23T01:44:26;1.52;;;0.80;;
16770;SDS011;8503;52.472;13.344;2024-02-23T01:45:09;3.50;;;1.02;;
16770;SDS011;8503;52.472;13.344;2024-02-23T01:45:52;1.70;;;0.70;;
16770;SDS011;8503;52.472;13.344;2024-02-23T01:46:35;2.13;;;0.85;;
16770;SDS011;8503;52.472;13.344;2024-02-23T01:47:18;2.28;;;0.80;;
16770;SDS011;8503;52.472;13.344;2024-02-23T01:48:01;0.95;;;0.45;;
16770;SDS011;8503;52.472;13.344;2024-02-23T01:48:45;1.75;;;0.60;;
16770;SDS011;8503;52.472;13.344;2024-02-23T01:49:29;0.57;;;0.32;;
16770;SDS011;8503;52.472;13.344;2024-02-23T01:50:14;1.63;;;0.70;;
16770;SDS011;8503;52.472;13.344;2024-02-23T01:50:57;1.25;;;0.70;;
16770;SDS011;8503;52.472;13.344;2024-02-23T01:51:40;1.02;;;0.50;;
16770;SDS011;8503;52.472;13.344;2024-02-23T01:52:23;0.80;;;0.35;;
16770;SDS011;8503;52.472;13.344;2024-02-23T01:53:06;0.68;;;0.47;;
16770;SDS011;8503;52.472;13.344;2024-02-23T01:53:48;0.57;;;0.40;;
16770;SDS011;8503;52.472;13.344;2024-02-23T01:54:32;0.75;;;0.30;;
16770;SDS011;8503;52.472;13.344;2024-02-23T01:55:15;0.50;;;0.32;;
16770;SDS011;8503;52.472;13.344;2024-02-23T01:55:57;1.00;;;0.50;;
16770;SDS011;8503;52.472;13.344;2024-02-23T01:56:42;0.77;;;0.40;;
16770;SDS011;8503;52.472;13.344;2024-02-23T01:57:25;0.88;;;0.52;;
16770;SDS011;8503;52.472;13.344;2024-02-23T01:58:27;0.73;;;0.30;;
16770;SDS011;8503;52.472;13.344;2024-02-23T01:59:12;1.05;;;0.60;;
16770;SDS011;8503;52.472;13.344;2024-02-23T01:59:55;0.43;;;0.22;;
16770;SDS011;8503;52.472;13.344;2024-02-23T02:00:37;0.50;;;0.30;;
16770;SDS011;8503;52.472;13.344;2024-02-23T02:01:21;2.60;;;0.40;;
16770;SDS011;8503;52.472;13.344;2024-02-23T02:02:04;0.32;;;0.20;;
16770;SDS011;8503;52.472;13.344;2024-02-23T02:02:47;1.15;;;0.40;;
16770;SDS011;8503;52.472;13.344;2024-02-23T02:03:31;0.57;;;0.45;;
16770;SDS011;8503;52.472;13.344;2024-02-23T02:04:14;1.05;;;0.40;;
16770;SDS011;8503;52.472;13.344;2024-02-23T02:04:58;0.52;;;0.30;;
16770;SDS011;8503;52.472;13.344;2024-02-23T02:05:41;1.10;;;0.30;;
16770;SDS011;8503;52.472;13.344;2024-02-23T02:06:26;0.50;;;0.30;;
16770;SDS011;8503;52.472;13.344;2024-02-23T02:07:08;0.43;;;0.20;;
16770;SDS011;8503;52.472;13.344;2024-02-23T02:07:53;1.42;;;0.40;;
16770;SDS011;8503;52.472;13.344;2024-02-23T02:08:40;0.52;;;0.30;;
16770;SDS011;8503;52.472;13.344;2024-02-23T02:09:22;0.40;;;0.30;;
16770;SDS011;8503;52.472;13.344;2024-02-23T02:10:06;0.52;;;0.20;;
16770;SDS011;8503;52.472;13.344;2024-02-23T02:10:50;0.30;;;0.20;;
16770;SDS011;8503;52.472;13.344;2024-02-23T02:11:33;0.88;;;0.40;;
16770;SDS011;8503;52.472;13.344;2024-02-23T02:12:25;0.65;;;0.30;;
16770;SDS011;8503;52.472;13.344;2024-02-23T02:13:08;0.50;;;0.20;;
16770;SDS011;8503;52.472;13.344;2024-02-23T02:13:51;0.73;;;0.40;;
16770;SDS011;8503;52.472;13.344;2024-02-23T02:14:36;1.25;;;0.43;;
16770;SDS011;8503;52.472;13.344;2024-02-23T02:15:18;0.95;;;0.65;;
16770;SDS011;8503;52.472;13.344;2024-02-23T02:16:03;0.45;;;0.40;;
16770;SDS011;8503;52.472;13.344;2024-02-23T02:16:47;0.40;;;0.25;;
16770;SDS011;8503;52.472;13.344;2024-02-23T02:17:29;0.40;;;0.30;;
16770;SDS011;8503;52.472;13.344;2024-02-23T02:18:16;0.57;;;0.35;;
16770;SDS011;8503;52.472;13.344;2024-02-23T02:19:00;0.15;;;0.10;;
16770;SDS011;8503;52.472;13.344;2024-02-23T02:19:45;0.55;;;0.20;;
16770;SDS011;8503;52.472;13.344;2024-02-23T02:20:31;0.28;;;0.10;;
16770;SDS011;8503;52.472;13.344;2024-02-23T02:21:16;0.40;;;0.30;;
16770;SDS011;8503;52.472;13.344;2024-02-23T02:21:58;0.40;;;0.17;;
16770;SDS011;8503;52.472;13.344;2024-02-23T02:22:40;0.38;;;0.20;;
16770;SDS011;8503;52.472;13.344;2024-02-23T02:23:23;0.20;;;0.20;;
16770;SDS011;8503;52.472;13.344;2024-02-23T02:24:07;0.38;;;0.20;;
16770;SDS011;8503;52.472;13.344;2024-02-23T02:24:53;2.10;;;0.22;;
16770;SDS011;8503;52.472;13.344;2024-02-23T02:25:36;0.50;;;0.20;;
16770;SDS011;8503;52.472;13.344;2024-02-23T02:26:19;0.17;;;0.10;;
16770;SDS011;8503;52.472;13.344;2024-02-23T02:27:02;0.50;;;0.20;;
16770;SDS011;8503;52.472;13.344;2024-02-23T02:27:45;0.35;;;0.20;;
16770;SDS011;8503;52.472;13.344;2024-02-23T02:28:27;0.30;;;0.20;;
16770;SDS011;8503;52.472;13.344;2024-02-23T02:29:10;0.10;;;0.10;;
16770;SDS011;8503;52.472;13.344;2024-02-23T02:29:55;0.00;;;0.00;;
16770;SDS011;8503;52.472;13.344;2024-02-23T02:30:38;0.55;;;0.00;;
16770;SDS011;8503;52.472;13.344;2024-02-23T02:31:22;0.20;;;0.15;;
16770;SDS011;8503;52.472;13.344;2024-02-23T02:32:05;1.35;;;0.10;;
16770;SDS011;8503;52.472;13.344;2024-02-23T02:32:47;9.75;;;0.47;;
16770;SDS011;8503;52.472;13.344;2024-02-23T02:33:31;0.13;;;0.10;;
16770;SDS011;8503;52.472;13.344;2024-02-23T02:34:13;0.40;;;0.10;;
16770;SDS011;8503;52.472;13.344;2024-02-23T02:34:57;0.17;;;0.10;;
16770;SDS011;8503;52.472;13.344;2024-02-23T02:35:41;0.05;;;0.00;;
16770;SDS011;8503;52.472;13.344;2024-02-23T02:36:24;0.10;;;0.08;;
16770;SDS011;8503;52.472;13.344;2024-02-23T02:37:07;0.50;;;0.10;;
16770;SDS011;8503;52.472;13.344;2024-02-23T02:37:49;2.53;;;0.25;;
16770;SDS011;8503;52.472;13.344;2024-02-23T02:38:32;0.10;;;0.10;;
16770;SDS011;8503;52.472;13.344;2024-02-23T02:39:16;1.30;;;0.40;;
16770;SDS011;8503;52.472;13.344;2024-02-23T02:39:58;0.10;;;0.05;;
16770;SDS011;8503;52.472;13.344;2024-02-23T02:40:41;0.45;;;0.22;;
16770;SDS011;8503;52.472;13.344;2024-02-23T02:41:25;0.10;;;0.08;;
16770;SDS011;8503;52.472;13.344;2024-02-23T02:42:10;1.10;;;0.00;;
16770;SDS011;8503;52.472;13.344;2024-02-23T02:42:52;0.22;;;0.05;;
16770;SDS011;8503;52.472;13.344;2024-02-23T02:43:36;0.15;;;0.10;;
16770;SDS011;8503;52.472;13.344;2024-02-23T02:44:18;0.43;;;0.05;;
16770;SDS011;8503;52.472;13.344;2024-02-23T02:45:01;0.20;;;0.10;;
16770;SDS011;8503;52.472;13.344;2024-02-23T02:45:45;0.55;;;0.20;;
16770;SDS011;8503;52.472;13.344;2024-02-23T02:46:27;1.52;;;0.10;;
16770;SDS011;8503;52.472;13.344;2024-02-23T02:47:09;0.43;;;0.20;;
16770;SDS011;8503;52.472;13.344;2024-02-23T02:47:53;0.10;;;0.00;;
16770;SDS011;8503;52.472;13.344;2024-02-23T02:48:35;0.15;;;0.10;;
16770;SDS011;8503;52.472;13.344;2024-02-23T02:49:18;0.43;;;0.13;;
16770;SDS011;8503;52.472;13.344;2024-02-23T02:50:02;0.10;;;0.10;;
16770;SDS011;8503;52.472;13.344;2024-02-23T02:50:46;0.10;;;0.10;;
16770;SDS011;8503;52.472;13.344;2024-02-23T02:51:31;3.20;;;0.30;;
16770;SDS011;8503;52.472;13.344;2024-02-23T02:52:15;0.40;;;0.22;;
16770;SDS011;8503;52.472;13.344;2024-02-23T02:52:57;0.30;;;0.10;;
16770;SDS011;8503;52.472;13.344;2024-02-23T02:53:40;0.20;;;0.10;;
16770;SDS011;8503;52.472;13.344;2024-02-23T02:54:23;0.28;;;0.10;;
16770;SDS011;8503;52.472;13.344;2024-02-23T02:55:06;0.20;;;0.10;;
16770;SDS011;8503;52.472;13.344;2024-02-23T02:55:49;0.77;;;0.03;;
16770;SDS011;8503;52.472;13.344;2024-02-23T02:56:32;0.17;;;0.10;;
16770;SDS011;8503;52.472;13.344;2024-02-23T02:57:15;0.47;;;0.05;;
16770;SDS011;8503;52.472;13.344;2024-02-23T02:57:57;0.00;;;0.00;;
16770;SDS011;8503;52.472;13.344;2024-02-23T02:58:41;0.50;;;0.20;;
16770;SDS011;8503;52.472;13.344;2024-02-23T02:59:23;0.98;;;0.10;;
16770;SDS011;8503;52.472;13.344;2024-02-23T03:00:09;0.20;;;0.10;;
16770;SDS011;8503;52.472;13.344;2024-02-23T03:00:53;0.00;;;0.00;;
16770;SDS011;8503;52.472;13.344;2024-02-23T03:01:36;0.00;;;0.00;;
16770;SDS011;8503;52.472;13.344;2024-02-23T03:02:18;0.50;;;0.25;;
16770;SDS011;8503;52.472;13.344;2024-02-23T03:03:02;0.90;;;0.40;;
16770;SDS011;8503;52.472;13.344;2024-02-23T03:03:44;0.20;;;0.10;;
16770;SDS011;8503;52.472;13.344;2024-02-23T03:04:27;1.38;;;0.20;;
16770;SDS011;8503;52.472;13.344;2024-02-23T03:05:10;0.35;;;0.28;;
16770;SDS011;8503;52.472;13.344;2024-02-23T03:05:54;0.70;;;0.13;;
16770;SDS011;8503;52.472;13.344;2024-02-23T03:06:37;1.35;;;0.10;;
16770;SDS011;8503;52.472;13.344;2024-02-23T03:07:20;0.10;;;0.10;;
16770;SDS011;8503;52.472;13.344;2024-02-23T03:08:03;0.98;;;0.10;;
16770;SDS011;8503;52.472;13.344;2024-02-23T03:08:46;0.63;;;0.28;;
16770;SDS011;8503;52.472;13.344;2024-02-23T03:09:29;0.13;;;0.10;;
16770;SDS011;8503;52.472;13.344;2024-02-23T03:10:12;0.60;;;0.20;;
16770;SDS011;8503;52.472;13.344;2024-02-23T03:10:54;0.50;;;0.20;;
16770;SDS011;8503;52.472;13.344;2024-02-23T03:11:38;0.75;;;0.10;;
16770;SDS011;8503;52.472;13.344;2024-02-23T03:12:20;0.43;;;0.10;;
16770;SDS011;8503;52.472;13.344;2024-02-23T03:13:03;0.30;;;0.05;;
16770;SDS011;8503;52.472;13.344;2024-02-23T03:13:47;1.10;;;0.10;;
16770;SDS011;8503;52.472;13.344;2024-02-23T03:14:29;0.10;;;0.00;;
16770;SDS011;8503;52.472;13.344;2024-02-23T03:15:18;0.93;;;0.05;;
16770;SDS011;8503;52.472;13.344;2024-02-23T03:16:01;2.17;;;0.20;;
16770;SDS011;8503;52.472;13.344;2024-02-23T03:16:44;0.30;;;0.10;;
16770;SDS011;8503;52.472;13.344;2024-02-23T03:17:29;0.20;;;0.10;;
16770;SDS011;8503;52.472;13.344;2024-02-23T03:18:13;0.47;;;0.30;;
16770;SDS011;8503;52.472;13.344;2024-02-23T03:18:56;0.05;;;0.05;;
16770;SDS011;8503;52.472;13.344;2024-02-23T03:19:39;0.60;;;0.08;;
16770;SDS011;8503;52.472;13.344;2024-02-23T03:20:28;0.20;;;0.10;;
16770;SDS011;8503;52.472;13.344;2024-02-23T03:21:13;0.20;;;0.10;;
16770;SDS011;8503;52.472;13.344;2024-02-23T03:21:56;0.20;;;0.05;;
16770;SDS011;8503;52.472;13.344;2024-02-23T03:22:39;0.85;;;0.10;;
16770;SDS011;8503;52.472;13.344;2024-02-23T03:23:22;1.25;;;0.22;;
16770;SDS011;8503;52.472;13.344;2024-02-23T03:24:05;0.10;;;0.03;;
16770;SDS011;8503;52.472;13.344;2024-02-23T03:24:48;0.10;;;0.08;;
16770;SDS011;8503;52.472;13.344;2024-02-23T03:25:31;1.08;;;0.20;;
16770;SDS011;8503;52.472;13.344;2024-02-23T03:26:15;1.75;;;0.20;;
16770;SDS011;8503;52.472;13.344;2024-02-23T03:26:58;0.20;;;0.15;;
16770;SDS011;8503;52.472;13.344;2024-02-23T03:27:41;0.22;;;0.10;;
16770;SDS011;8503;52.472;13.344;2024-02-23T03:28:24;0.25;;;0.13;;
16770;SDS011;8503;52.472;13.344;2024-02-23T03:29:07;0.20;;;0.10;;
16770;SDS011;8503;52.472;13.344;2024-02-23T03:29:50;0.20;;;0.00;;
16770;SDS011;8503;52.472;13.344;2024-02-23T03:30:34;0.50;;;0.30;;
16770;SDS011;8503;52.472;13.344;2024-02-23T03:31:17;1.10;;;0.20;;
16770;SDS011;8503;52.472;13.344;2024-02-23T03:32:00;0.10;;;0.10;;
16770;SDS011;8503;52.472;13.344;2024-02-23T03:32:43;0.28;;;0.10;;
16770;SDS011;8503;52.472;13.344;2024-02-23T03:33:25;0.08;;;0.03;;
16770;SDS011;8503;52.472;13.344;2024-02-23T03:34:09;0.13;;;0.10;;
16770;SDS011;8503;52.472;13.344;2024-02-23T03:34:52;0.30;;;0.10;;
16770;SDS011;8503;52.472;13.344;2024-02-23T03:35:34;0.08;;;0.00;;
16770;SDS011;8503;52.472;13.344;2024-02-23T03:36:19;0.40;;;0.10;;
16770;SDS011;8503;52.472;13.344;2024-02-23T03:37:02;0.80;;;0.20;;
16770;SDS011;8503;52.472;13.344;2024-02-23T03:37:44;0.90;;;0.30;;
16770;SDS011;8503;52.472;13.344;2024-02-23T03:38:28;0.38;;;0.10;;
16770;SDS011;8503;52.472;13.344;2024-02-23T03:39:13;0.20;;;0.10;;
16770;SDS011;8503;52.472;13.344;2024-02-23T03:39:55;0.50;;;0.20;;
16770;SDS011;8503;52.472;13.344;2024-02-23T03:40:39;0.08;;;0.03;;
16770;SDS011;8503;52.472;13.344;2024-02-23T03:41:22;0.90;;;0.50;;
16770;SDS011;8503;52.472;13.344;2024-02-23T03:42:05;0.52;;;0.10;;
16770;SDS011;8503;52.472;13.344;2024-02-23T03:42:48;0.20;;;0.10;;
16770;SDS011;8503;52.472;13.344;2024-02-23T03:43:31;0.43;;;0.10;;
16770;SDS011;8503;52.472;13.344;2024-02-23T03:44:15;0.08;;;0.08;;
16770;SDS011;8503;52.472;13.344;2024-02-23T03:44:57;0.68;;;0.10;;
16770;SDS011;8503;52.472;13.344;2024-02-23T03:45:41;0.20;;;0.05;;
16770;SDS011;8503;52.472;13.344;2024-02-23T03:46:23;0.95;;;0.30;;
16770;SDS011;8503;52.472;13.344;2024-02-23T03:47:07;0.20;;;0.00;;
16770;SDS011;8503;52.472;13.344;2024-02-23T03:47:49;1.23;;;0.05;;
16770;SDS011;8503;52.472;13.344;2024-02-23T03:48:32;0.40;;;0.10;;
16770;SDS011;8503;52.472;13.344;2024-02-23T03:49:15;0.00;;;0.00;;
16770;SDS011;8503;52.472;13.344;2024-02-23T03:49:58;0.52;;;0.10;;
16770;SDS011;8503;52.472;13.344;2024-02-23T03:50:40;0.20;;;0.10;;
16770;SDS011;8503;52.472;13.344;2024-02-23T03:51:24;1.38;;;0.20;;
16770;SDS011;8503;52.472;13.344;2024-02-23T03:52:08;1.10;;;0.20;;
16770;SDS011;8503;52.472;13.344;2024-02-23T03:52:50;0.30;;;0.10;;
16770;SDS011;8503;52.472;13.344;2024-02-23T03:53:33;0.00;;;0.00;;
16770;SDS011;8503;52.472;13.344;2024-02-23T03:54:15;0.77;;;0.22;;
16770;SDS011;8503;52.472;13.344;2024-02-23T03:54:58;1.60;;;0.25;;
16770;SDS011;8503;52.472;13.344;2024-02-23T03:55:41;0.30;;;0.20;;
16770;SDS011;8503;52.472;13.344;2024-02-23T03:56:23;0.25;;;0.10;;
16770;SDS011;8503;52.472;13.344;2024-02-23T03:57:07;0.85;;;0.20;;
16770;SDS011;8503;52.472;13.344;2024-02-23T03:57:49;0.50;;;0.20;;
16770;SDS011;8503;52.472;13.344;2024-02-23T03:58:32;0.00;;;0.00;;
16770;SDS011;8503;52.472;13.344;2024-02-23T03:59:15;0.90;;;0.10;;
16770;SDS011;8503;52.472;13.344;2024-02-23T03:59:57;0.20;;;0.10;;
16770;SDS011;8503;52.472;13.344;2024-02-23T04:00:40;0.22;;;0.10;;
16770;SDS011;8503;52.472;13.344;2024-02-23T04:01:24;0.75;;;0.20;;
16770;SDS011;8503;52.472;13.344;2024-02-23T04:02:06;0.30;;;0.20;;
16770;SDS011;8503;52.472;13.344;2024-02-23T04:02:50;0.25;;;0.08;;
16770;SDS011;8503;52.472;13.344;2024-02-23T04:03:37;1.73;;;0.20;;
16770;SDS011;8503;52.472;13.344;2024-02-23T04:04:19;0.47;;;0.17;;
16770;SDS011;8503;52.472;13.344;2024-02-23T04:05:02;0.05;;;0.00;;
16770;SDS011;8503;52.472;13.344;2024-02-23T04:05:46;1.05;;;0.15;;
16770;SDS011;8503;52.472;13.344;2024-02-23T04:06:30;0.30;;;0.15;;
16770;SDS011;8503;52.472;13.344;2024-02-23T04:07:13;0.25;;;0.10;;
16770;SDS011;8503;52.472;13.344;2024-02-23T04:07:56;0.70;;;0.10;;
16770;SDS011;8503;52.472;13.344;2024-02-23T04:08:39;0.55;;;0.20;;
16770;SDS011;8503;52.472;13.344;2024-02-23T04:09:22;0.15;;;0.00;;
16770;SDS011;8503;52.472;13.344;2024-02-23T04:10:06;1.88;;;0.28;;
16770;SDS011;8503;52.472;13.344;2024-02-23T04:10:49;0.93;;;0.22;;
16770;SDS011;8503;52.472;13.344;2024-02-23T04:11:32;0.22;;;0.10;;
16770;SDS011;8503;52.472;13.344;2024-02-23T04:12:15;0.40;;;0.10;;
16770;SDS011;8503;52.472;13.344;2024-02-23T04:12:58;1.02;;;0.10;;
16770;SDS011;8503;52.472;13.344;2024-02-23T04:13:41;0.20;;;0.10;;
16770;SDS011;8503;52.472;13.344;2024-02-23T04:14:24;0.10;;;0.10;;
16770;SDS011;8503;52.472;13.344;2024-02-23T04:15:07;0.17;;;0.10;;
16770;SDS011;8503;52.472;13.344;2024-02-23T04:15:49;0.30;;;0.10;;
16770;SDS011;8503;52.472;13.344;2024-02-23T04:16:34;0.17;;;0.10;;
16770;SDS011;8503;52.472;13.344;2024-02-23T04:17:17;0.50;;;0.20;;
16770;SDS011;8503;52.472;13.344;2024-02-23T04:18:00;0.20;;;0.10;;
16770;SDS011;8503;52.472;13.344;2024-02-23T04:18:43;0.20;;;0.00;;
16770;SDS011;8503;52.472;13.344;2024-02-23T04:19:26;2.28;;;0.20;;
16770;SDS011;8503;52.472;13.344;2024-02-23T04:20:09;0.65;;;0.20;;
16770;SDS011;8503;52.472;13.344;2024-02-23T04:20:52;0.65;;;0.20;;
16770;SDS011;8503;52.472;13.344;2024-02-23T04:21:36;0.52;;;0.30;;
16770;SDS011;8503;52.472;13.344;2024-02-23T04:22:19;0.17;;;0.17;;
16770;SDS011;8503;52.472;13.344;2024-02-23T04:23:02;0.95;;;0.10;;